Time;durP1;ratioP1;P1;durP2;ratioP2;P2;SDS_P1;SDS_P2;PMS_P1;PMS_P2;Temp;Humidity;BMP_temperature;BMP_pressure;BME280_temperature;BME280_humidity;BME280_pressure;Samples;Min_cycle;Max_cycle;Signal;HPM_P1;HPM_P2
2022/08/04 00:01:50;;;;;;;;;11.25;11.25;;;;;28.44;42.56;100754.50;146608;620;46010;-75
2022/08/04 00:04:58;;;;;;;;;9.00;8.00;;;;;28.47;42.25;100756.19;146607;568;46012;-75
2022/08/04 00:08:31;;;;;;;;;10.00;9.00;;;;;28.49;42.27;100757.06;146609;583;46012;-71
2022/08/04 00:11:34;;;;;;;;;12.75;10.75;;;;;28.52;42.64;100765.87;146608;575;46016;-71
2022/08/04 00:14:56;;;;;;;;;7.50;7.50;;;;;28.53;42.49;100759.59;146607;613;46021;-70
2022/08/04 00:18:11;;;;;;;;;11.00;11.00;;;;;28.55;41.73;100756.94;146606;593;46016;-75
2022/08/04 00:21:23;;;;;;;;;9.75;8.75;;;;;28.55;42.04;100764.94;146609;645;46020;-73
2022/08/04 00:24:32;;;;;;;;;;;;;;;;;;;;;
2022/08/04 00:27:39;;;;;;;;;8.50;8.25;;;;;28.55;41.66;100756.94;146624;570;45011;-76
2022/08/04 00:30:41;;;;;;;;;8.25;8.25;;;;;28.55;41.81;100760.47;146621;631;46014;-83
2022/08/04 00:33:42;;;;;;;;;10.50;9.75;;;;;28.06;41.66;100662.84;146623;575;46020;-77
2022/08/04 00:36:40;;;;;;;;;9.75;9.25;;;;;28.53;42.13;100751.59;146622;708;45016;-78
2022/08/04 00:39:43;;;;;;;;;8.50;8.50;;;;;28.51;41.48;100750.78;146624;641;45020;-76
2022/08/04 00:43:14;;;;;;;;;8.00;8.00;;;;;28.50;40.71;100745.47;146621;649;46017;-75
2022/08/04 00:46:54;;;;;;;;;8.25;8.25;;;;;27.39;40.81;100552.37;146620;569;46020;-75
2022/08/04 00:50:14;;;;;;;;;9.00;7.75;;;;;28.03;40.61;100662.03;146620;570;46015;-75
2022/08/04 00:53:30;;;;;;;;;7.00;6.50;;;;;28.53;39.74;100740.06;146624;563;46012;-72
2022/08/04 00:57:00;;;;;;;;;7.25;7.25;;;;;28.12;39.74;100667.16;146622;565;45016;-73
2022/08/04 01:00:19;;;;;;;;;9.33;8.67;;;;;27.56;39.54;100560.00;146624;569;46008;-73
2022/08/04 01:03:54;;;;;;;;;8.00;8.00;;;;;28.61;39.92;100737.25;146622;563;46016;-74
2022/08/04 01:07:26;;;;;;;;;8.00;7.00;;;;;28.65;39.97;100731.78;146625;570;45020;-71
2022/08/04 01:10:49;;;;;;;;;8.33;8.00;;;;;28.66;39.91;100730.88;146620;591;46012;-73
2022/08/04 01:14:22;;;;;;;;;9.75;8.50;;;;;28.66;39.77;100733.56;146622;686;46020;-74
2022/08/04 01:17:46;;;;;;;;;7.25;6.75;;;;;28.66;39.91;100738.91;146622;737;46016;-76
2022/08/04 01:21:03;;;;;;;;;9.00;9.00;;;;;28.18;39.57;100663.50;146622;685;45021;-74
2022/08/04 01:24:31;;;;;;;;;7.50;7.50;;;;;28.63;40.16;100743.41;146608;652;46016;-74
2022/08/04 01:28:18;;;;;;;;;7.75;6.50;;;;;27.46;39.96;100550.47;146611;586;46010;-76
2022/08/04 01:31:50;;;;;;;;;8.25;8.25;;;;;28.63;40.15;100746.97;146606;698;46919;-73
2022/08/04 01:35:32;;;;;;;;;10.25;10.25;;;;;28.66;40.41;100751.31;146610;606;46013;-73
2022/08/04 01:39:39;;;;;;;;;9.75;8.75;;;;;27.61;42.45;100582.09;146607;599;46016;-75
2022/08/04 01:42:32;;;;;;;;;10.25;8.75;;;;;28.56;46.75;100761.34;146610;622;46010;-79
2022/08/04 01:45:28;;;;;;;;;9.00;9.00;;;;;28.51;46.82;100753.44;146607;689;46016;-74
2022/08/04 01:48:42;;;;;;;;;10.75;10.00;;;;;27.99;45.67;100677.22;146606;576;46020;-73
2022/08/04 01:51:38;;;;;;;;;10.00;9.50;;;;;28.49;48.98;100770.41;146607;583;46012;-76
2022/08/04 01:54:45;;;;;;;;;8.00;8.00;;;;;28.46;47.43;100768.66;146607;625;46020;-75
2022/08/04 01:57:41;;;;;;;;;11.00;10.25;;;;;28.43;50.02;100766.06;146607;599;46017;-74
2022/08/04 02:00:33;;;;;;;;;10.00;10.00;;;;;28.41;51.16;100778.59;146608;587;46010;-73
2022/08/04 02:03:39;;;;;;;;;8.75;8.75;;;;;28.28;48.01;100763.69;146606;717;46015;-77
2022/08/04 02:07:36;;;;;;;;;;;;;;;;;;;;;
2022/08/04 02:11:18;;;;;;;;;9.75;9.75;;;;;27.05;48.61;100586.75;146606;577;46012;-72
2022/08/04 02:14:52;;;;;;;;;11.50;11.00;;;;;28.04;46.81;100770.44;146607;679;46020;-73
2022/08/04 02:18:45;;;;;;;;;7.00;7.00;;;;;28.03;47.17;100780.19;146606;670;46016;-74
2022/08/04 02:21:45;;;;;;;;;7.75;7.75;;;;;28.02;48.93;100766.91;146610;569;46020;-73
2022/08/04 02:24:52;;;;;;;;;10.25;8.00;;;;;28.02;48.60;100777.56;146620;569;45016;-73
2022/08/04 02:28:36;;;;;;;;;9.00;9.00;;;;;26.98;47.37;100604.62;146618;706;46920;-74
2022/08/04 02:31:51;;;;;;;;;7.25;7.00;;;;;27.98;47.30;100786.56;146619;687;46016;-74
2022/08/04 02:35:24;;;;;;;;;10.25;9.00;;;;;27.92;46.94;100786.66;146625;650;46011;-73
2022/08/04 02:38:33;;;;;;;;;11.00;9.75;;;;;27.85;48.98;100789.44;146620;630;46014;-74
2022/08/04 02:41:32;;;;;;;;;10.00;10.00;;;;;27.75;49.45;100784.28;146622;600;46011;-73
2022/08/04 02:44:26;;;;;;;;;9.75;9.75;;;;;27.68;50.24;100780.84;146619;583;46016;-74
2022/08/04 02:47:29;;;;;;;;;11.00;10.00;;;;;27.59;49.95;100775.69;146622;662;45920;-77
2022/08/04 02:50:33;;;;;;;;;;;;;;;;;;;;;
2022/08/04 02:53:37;;;;;;;;;9.50;8.50;;;;;27.39;49.33;100784.03;146622;622;46020;-74
2022/08/04 02:56:34;;;;;;;;;9.25;9.25;;;;;27.38;50.60;100787.59;146622;570;46012;-78
2022/08/04 02:59:45;;;;;;;;;;;;;;;;;;;;;
2022/08/04 03:03:08;;;;;;;;;9.25;9.25;;;;;27.24;48.77;100794.94;146622;577;46012;-74
2022/08/04 03:06:55;;;;;;;;;10.00;10.00;;;;;26.12;48.91;100613.06;146624;698;45020;-74
2022/08/04 03:10:25;;;;;;;;;9.00;9.00;;;;;27.15;49.84;100799.50;146619;624;46920;-76
2022/08/04 03:14:08;;;;;;;;;9.25;8.00;;;;;27.12;48.22;100799.50;146625;692;45012;-77
2022/08/04 03:17:55;;;;;;;;;11.75;10.50;;;;;26.07;49.24;100609.59;146619;661;46016;-78
2022/08/04 03:21:20;;;;;;;;;10.50;10.50;;;;;27.15;50.00;100799.50;146623;573;45032;-79
2022/08/04 03:24:48;;;;;;;;;10.75;10.75;;;;;27.18;49.59;100810.09;146619;570;46016;-77
2022/08/04 03:28:30;;;;;;;;;8.50;8.50;;;;;26.18;47.62;100619.16;146622;576;45920;-76
2022/08/04 03:32:09;;;;;;;;;11.00;11.00;;;;;26.29;46.79;100628.75;146619;707;45039;-78
2022/08/04 03:35:48;;;;;;;;;11.00;11.00;;;;;27.47;47.26;100810.53;146624;648;45021;-77
2022/08/04 03:39:27;;;;;;;;;7.25;7.25;;;;;26.48;46.36;100632.91;146621;578;45016;-74
2022/08/04 03:43:02;;;;;;;;;6.00;6.00;;;;;27.57;46.55;100813.00;146621;686;46021;-78
2022/08/04 03:46:33;;;;;;;;;7.50;7.50;;;;;26.53;45.81;100627.53;146618;701;46016;-73
2022/08/04 03:50:28;;;;;;;;;7.00;7.00;;;;;26.59;45.05;100632.75;146625;708;46011;-74
2022/08/04 03:53:52;;;;;;;;;8.25;7.75;;;;;26.74;45.59;100636.97;146619;569;45016;-73
2022/08/04 03:57:36;;;;;;;;;7.75;7.50;;;;;26.78;45.05;100638.66;146623;674;46022;-75
2022/08/04 04:00:57;;;;;;;;;10.50;9.25;;;;;27.91;45.57;100817.75;146621;583;45920;-75
2022/08/04 04:04:42;;;;;;;;;6.25;6.25;;;;;28.00;44.36;100814.91;146623;564;46021;-76
2022/08/04 04:08:30;;;;;;;;;9.00;7.75;;;;;28.06;44.46;100829.91;146620;593;46016;-75
2022/08/04 04:12:22;;;;;;;;;7.00;6.75;;;;;26.95;42.68;100634.81;146623;590;46020;-79
2022/08/04 04:16:09;;;;;;;;;8.75;8.00;;;;;27.04;43.85;100641.75;146609;580;46016;-76
2022/08/04 04:19:48;;;;;;;;;;;;;;;;;;;;;
2022/08/04 04:23:13;;;;;;;;;7.33;5.00;;;;;27.18;43.08;100642.41;146617;602;46012;-76
2022/08/04 04:26:38;;;;;;;;;6.33;6.33;;;;;28.30;42.52;100818.75;146611;612;46010;-78
2022/08/04 04:30:24;;;;;;;;;5.00;5.00;;;;;28.17;42.31;100803.94;146608;578;46018;-76
2022/08/04 04:34:10;;;;;;;;;5.67;5.67;;;;;28.41;40.43;100831.00;146611;587;45021;-77
2022/08/04 04:37:36;;;;;;;;;8.33;8.33;;;;;28.44;41.73;100829.19;146610;620;45016;-77
2022/08/04 04:41:07;;;;;;;;;6.00;5.00;;;;;28.51;41.37;100825.47;146610;613;46021;-79
2022/08/04 04:44:44;;;;;;;;;8.00;7.00;;;;;28.58;41.90;100834.22;146607;641;46921;-77
2022/08/04 04:48:20;;;;;;;;;8.00;7.00;;;;;28.67;41.31;100838.50;146609;656;46020;-76
2022/08/04 04:51:49;;;;;;;;;7.67;6.67;;;;;28.77;41.29;100842.69;146607;631;46016;-75
2022/08/04 04:55:13;;;;;;;;;6.00;5.33;;;;;28.85;41.36;100842.50;146608;579;46020;-74
2022/08/04 04:58:06;;;;;;;;;7.00;7.00;;;;;28.94;41.87;100850.31;146608;678;46016;-74
2022/08/04 05:01:39;;;;;;;;;6.33;6.33;;;;;28.99;41.59;100853.78;146611;678;46010;-78
2022/08/04 05:05:26;;;;;;;;;6.00;5.33;;;;;27.95;41.53;100672.00;146607;602;46017;-73
2022/08/04 05:08:51;;;;;;;;;6.00;4.67;;;;;28.94;41.89;100856.56;146609;637;46020;-72
2022/08/04 05:12:11;;;;;;;;;8.00;7.00;;;;;29.09;42.18;100859.81;146609;578;46017;-74
2022/08/04 05:15:10;;;;;;;;;6.33;6.33;;;;;29.35;42.28;100859.22;146607;588;48022;-74
2022/08/04 05:18:08;;;;;;;;;6.00;6.00;;;;;29.66;42.18;100856.69;146609;628;46013;-74
2022/08/04 05:21:38;;;;;;;;;7.50;6.00;;;;;29.94;42.03;100854.16;146610;575;46010;-76
2022/08/04 05:25:00;;;;;;;;;8.33;7.33;;;;;30.22;41.94;100854.31;146621;629;46017;-75
2022/08/04 05:28:08;;;;;;;;;5.00;5.00;;;;;30.49;41.46;100859.78;146627;600;45020;-78
2022/08/04 05:31:30;;;;;;;;;8.00;8.00;;;;;30.70;41.72;100851.13;146619;586;46016;-78
2022/08/04 05:35:10;;;;;;;;;8.33;8.00;;;;;29.99;40.99;100699.81;146624;577;46010;-76
2022/08/04 05:38:07;;;;;;;;;7.00;7.00;;;;;31.08;40.91;100862.47;146620;626;46014;-79
2022/08/04 05:41:05;;;;;;;;;7.00;7.00;;;;;31.11;40.84;100859.69;146623;615;46011;-76
2022/08/04 05:44:04;;;;;;;;;8.00;7.25;;;;;31.15;41.34;100861.34;146618;579;45037;-76
2022/08/04 05:47:06;;;;;;;;;8.25;7.00;;;;;31.22;41.59;100852.22;146624;610;46010;-76
2022/08/04 05:50:00;;;;;;;;;8.50;8.50;;;;;31.30;42.07;100860.84;146623;572;45014;-78
2022/08/04 05:53:00;;;;;;;;;7.00;7.00;;;;;31.48;41.34;100858.53;146626;627;45020;-76
2022/08/04 05:55:56;;;;;;;;;7.00;7.00;;;;;31.66;40.36;100857.91;146624;615;46012;-77
2022/08/04 05:58:53;;;;;;;;;8.00;7.00;;;;;31.81;40.03;100855.62;146625;573;45020;-77
2022/08/04 06:02:10;;;;;;;;;8.00;7.00;;;;;31.97;39.21;100859.56;146619;618;46016;-78
2022/08/04 06:05:20;;;;;;;;;;;;;;;;;;;;;
2022/08/04 06:08:17;;;;;;;;;10.00;8.00;;;;;32.19;39.17;100857.00;146624;708;46012;-77
2022/08/04 06:11:23;;;;;;;;;9.00;6.75;;;;;32.31;38.55;100855.69;146624;600;45010;-73
2022/08/04 06:14:32;;;;;;;;;6.75;6.75;;;;;32.36;38.40;100853.69;146623;578;45016;-75
2022/08/04 06:17:44;;;;;;;;;7.33;7.00;;;;;32.39;39.17;100854.44;146626;580;46011;-75
2022/08/04 06:21:00;;;;;;;;;7.00;7.00;;;;;32.48;38.77;100845.19;146622;584;45016;-74
2022/08/04 06:23:56;;;;;;;;;7.75;6.75;;;;;32.53;38.89;100845.91;146612;627;46010;-77
2022/08/04 06:27:10;;;;;;;;;9.00;8.50;;;;;32.52;37.95;100849.50;146608;580;45032;-73
2022/08/04 06:30:25;;;;;;;;;8.75;8.00;;;;;31.45;38.64;100685.34;146611;681;45020;-76
2022/08/04 06:33:55;;;;;;;;;8.75;7.50;;;;;31.81;39.49;100785.91;146606;597;46016;-73
2022/08/04 06:36:52;;;;;;;;;7.50;7.00;;;;;32.22;39.38;100858.69;146609;575;46020;-72
2022/08/04 06:39:49;;;;;;;;;9.75;9.75;;;;;32.25;39.16;100855.91;146606;570;46013;-71
2022/08/04 06:42:46;;;;;;;;;9.00;9.00;;;;;32.27;39.84;100852.22;146609;624;46020;-75
2022/08/04 06:45:49;;;;;;;;;11.50;9.00;;;;;32.27;39.56;100846.84;146609;643;46012;-72
2022/08/04 06:48:51;;;;;;;;;12.50;10.25;;;;;32.28;39.84;100850.44;146610;573;46010;-75
2022/08/04 06:51:51;;;;;;;;;10.25;10.25;;;;;32.30;39.58;100851.22;146604;669;46016;-73
2022/08/04 06:54:56;;;;;;;;;;;;;;;;;;;;;
2022/08/04 06:57:53;;;;;;;;;8.50;8.50;;;;;32.35;39.18;100852.81;146607;577;45917;-76
2022/08/04 07:01:05;;;;;;;;;6.25;5.75;;;;;32.38;39.30;100855.38;146610;572;46013;-78
2022/08/04 07:03:59;;;;;;;;;9.75;8.50;;;;;32.43;40.73;100855.19;146607;563;46012;-78
2022/08/04 07:07:05;;;;;;;;;8.00;8.00;;;;;32.49;41.50;100852.31;146609;629;46020;-79
2022/08/04 07:10:03;;;;;;;;;9.75;9.75;;;;;32.45;40.85;100853.38;146608;647;46016;-82
2022/08/04 07:13:09;;;;;;;;;8.00;8.00;;;;;32.41;40.73;100857.94;146611;651;46010;-78
2022/08/04 07:16:19;;;;;;;;;8.75;8.75;;;;;32.39;41.65;100861.63;146608;657;46017;-79
2022/08/04 07:19:12;;;;;;;;;8.50;8.50;;;;;32.36;41.33;100859.03;146610;601;46020;-82
2022/08/04 07:22:15;;;;;;;;;11.75;10.75;;;;;32.38;40.81;100871.47;146607;630;46012;-77
2022/08/04 07:25:17;;;;;;;;;9.25;8.75;;;;;32.43;40.73;100871.28;146609;617;46021;-81
2022/08/04 07:28:16;;;;;;;;;10.75;9.25;;;;;32.41;42.04;100873.19;146607;591;46014;-79
2022/08/04 07:31:16;;;;;;;;;6.50;6.25;;;;;32.39;40.78;100875.03;146609;576;46021;-80
2022/08/04 07:34:14;;;;;;;;;11.75;10.00;;;;;32.37;40.30;100871.56;146609;680;45020;-79
2022/08/04 07:37:11;;;;;;;;;9.00;9.00;;;;;32.38;40.41;100873.28;146608;625;45020;-79
2022/08/04 07:40:07;;;;;;;;;10.50;10.00;;;;;32.44;40.83;100873.09;146610;569;46012;-79
2022/08/04 07:43:13;;;;;;;;;8.25;7.75;;;;;32.52;40.25;100876.34;146608;575;46020;-80
2022/08/04 07:46:14;;;;;;;;;8.75;8.75;;;;;32.63;39.39;100876.84;146607;569;46017;-77
2022/08/04 07:49:15;;;;;;;;;6.50;6.50;;;;;32.70;37.81;100882.84;146605;595;46919;-81
2022/08/04 07:52:19;;;;;;;;;9.00;9.00;;;;;31.83;39.12;100722.41;146608;640;46012;-81
2022/08/04 07:55:27;;;;;;;;;8.50;8.50;;;;;32.84;39.18;100876.97;146610;700;45021;-78
2022/08/04 07:58:29;;;;;;;;;8.50;8.25;;;;;32.85;38.88;100878.69;146611;572;46012;-80
2022/08/04 08:01:25;;;;;;;;;7.50;7.50;;;;;32.86;38.99;100880.44;146610;692;46010;-78
2022/08/04 08:04:29;;;;;;;;;5.50;5.50;;;;;32.88;38.06;100890.19;146606;634;46016;-80
2022/08/04 08:07:27;;;;;;;;;8.25;7.50;;;;;33.00;37.51;100886.19;146610;689;46012;-83
2022/08/04 08:10:27;;;;;;;;;6.00;6.00;;;;;33.04;36.60;100881.56;146608;582;46016;-80
2022/08/04 08:13:29;;;;;;;;;6.75;5.50;;;;;33.04;36.70;100885.13;146608;600;46020;-82
2022/08/04 08:16:32;;;;;;;;;7.25;7.00;;;;;33.11;36.76;100896.50;146607;678;46014;-80
2022/08/04 08:19:27;;;;;;;;;6.00;6.00;;;;;33.19;33.77;100897.09;146610;627;46010;-81
2022/08/04 08:22:34;;;;;;;;;6.00;5.00;;;;;32.31;35.10;100732.25;146607;676;46016;-79
2022/08/04 08:25:40;;;;;;;;;7.00;7.00;;;;;32.48;34.92;100745.03;146607;683;46020;-83
2022/08/04 08:28:34;;;;;;;;;6.00;5.00;;;;;33.45;34.89;100893.31;146610;605;46012;-79
2022/08/04 08:31:29;;;;;;;;;6.50;6.50;;;;;33.50;34.88;100888.66;146608;677;46021;-80
2022/08/04 08:34:33;;;;;;;;;;;;;;;;;;;;;
2022/08/04 08:37:57;;;;;;;;;8.25;7.00;;;;;33.61;35.10;100911.53;146608;629;46020;-81
2022/08/04 08:41:46;;;;;;;;;6.75;6.75;;;;;32.75;35.60;100743.06;146606;718;46919;-80
2022/08/04 08:45:14;;;;;;;;;6.50;6.50;;;;;33.70;34.64;100898.56;146609;660;46020;-77
2022/08/04 08:48:44;;;;;;;;;6.50;6.50;;;;;33.75;35.57;100893.03;146604;569;46016;-79
2022/08/04 08:52:17;;;;;;;;;7.00;7.00;;;;;32.73;36.01;100713.56;146609;575;46021;-76
2022/08/04 08:55:52;;;;;;;;;8.00;7.75;;;;;33.67;35.54;100900.53;146607;620;47012;-77
2022/08/04 08:59:22;;;;;;;;;7.00;7.00;;;;;33.63;36.66;100889.03;146608;563;46020;-79
2022/08/04 09:03:10;;;;;;;;;8.00;7.50;;;;;32.57;37.13;100729.44;146607;613;46012;-76
2022/08/04 09:07:06;;;;;;;;;7.25;6.75;;;;;32.50;35.99;100727.06;146611;669;46010;-77
2022/08/04 09:10:53;;;;;;;;;6.00;5.75;;;;;32.46;36.90;100728.09;146608;580;46014;-77
2022/08/04 09:14:14;;;;;;;;;7.75;6.75;;;;;33.34;35.45;100882.16;146609;710;46010;-80
2022/08/04 09:17:32;;;;;;;;;6.25;5.75;;;;;33.51;36.34;100890.41;146608;685;46012;-73
2022/08/04 09:20:54;;;;;;;;;8.75;8.75;;;;;33.73;35.87;100890.38;146611;739;46012;-76
2022/08/04 09:24:23;;;;;;;;;8.50;8.50;;;;;33.87;35.58;100888.94;146604;576;47922;-78
2022/08/04 09:27:50;;;;;;;;;6.00;6.00;;;;;33.95;35.05;100889.47;146609;595;46020;-80
2022/08/04 09:30:58;;;;;;;;;6.75;6.25;;;;;34.17;31.72;100881.34;146606;565;46017;-82
2022/08/04 09:34:25;;;;;;;;;6.00;6.00;;;;;33.51;34.20;100729.13;146610;597;46010;-74
2022/08/04 09:38:10;;;;;;;;;7.50;4.50;;;;;34.60;33.64;100882.13;146606;592;46016;-76
2022/08/04 09:41:29;;;;;;;;;7.00;6.00;;;;;34.59;33.19;100870.50;146610;570;46010;-74
2022/08/04 09:45:29;;;;;;;;;4.50;4.25;;;;;34.63;33.38;100849.66;146611;574;46012;-76
2022/08/04 09:49:03;;;;;;;;;4.75;4.75;;;;;34.77;29.95;100867.84;146610;575;46020;-76
2022/08/04 09:52:22;;;;;;;;;6.00;5.00;;;;;34.81;25.77;100880.25;146608;604;46012;-77
2022/08/04 09:55:47;;;;;;;;;6.00;5.25;;;;;34.78;26.16;100878.59;146609;584;46020;-78
2022/08/04 09:59:29;;;;;;;;;4.50;4.50;;;;;33.99;28.58;100741.31;146607;676;46016;-78
2022/08/04 10:02:42;;;;;;;;;5.50;5.50;;;;;34.91;29.49;100878.88;146608;580;46020;-77
2022/08/04 10:06:35;;;;;;;;;5.00;5.00;;;;;34.23;31.69;100733.91;146604;563;46016;-76
2022/08/04 10:10:04;;;;;;;;;6.00;6.00;;;;;35.44;29.57;100866.44;146612;728;46010;-81
2022/08/04 10:13:24;;;;;;;;;5.50;5.50;;;;;35.80;26.08;100867.28;146605;564;46016;-79
2022/08/04 10:16:49;;;;;;;;;5.75;5.75;;;;;36.04;30.27;100875.06;146604;662;46021;-76
2022/08/04 10:19:51;;;;;;;;;6.50;6.50;;;;;36.17;27.67;100868.09;146605;673;46016;-79
2022/08/04 10:22:55;;;;;;;;;5.50;5.50;;;;;36.25;28.77;100879.34;146608;696;47010;-80
2022/08/04 10:26:34;;;;;;;;;7.75;6.75;;;;;35.51;29.42;100731.19;146605;579;46016;-80
2022/08/04 10:29:53;;;;;;;;;7.00;6.00;;;;;36.33;24.45;100872.62;146613;594;45012;-80
2022/08/04 10:33:33;;;;;;;;;5.00;4.00;;;;;36.23;27.88;100872.28;146609;559;46016;-80
2022/08/04 10:36:44;;;;;;;;;6.75;5.75;;;;;36.08;28.50;100868.59;146608;582;46020;-81
2022/08/04 10:44:27;;;;;;;;;5.25;5.25;;;;;35.36;28.71;100722.13;146611;630;46010;-79
2022/08/04 10:47:35;;;;;;;;;;;;;;;;;;;;;
2022/08/04 10:50:42;;;;;;;;;6.00;6.00;;;;;36.56;27.99;100861.50;146608;575;46020;-79
2022/08/04 10:53:54;;;;;;;;;;;;;;;;;;;;;
2022/08/04 10:57:00;;;;;;;;;7.00;7.00;;;;;36.71;28.16;100859.78;146609;653;46020;-79
2022/08/04 11:00:34;;;;;;;;;7.00;6.00;;;;;35.77;28.05;100710.12;146607;581;46016;-79
2022/08/04 11:04:19;;;;;;;;;;;;;;;;;;;;;
2022/08/04 11:07:48;;;;;;;;;3.75;3.00;;;;;36.73;28.00;100864.16;146606;730;46035;-80
2022/08/04 11:11:41;;;;;;;;;6.00;6.00;;;;;35.73;27.94;100714.78;146609;683;46020;-80
2022/08/04 11:15:23;;;;;;;;;6.50;4.75;;;;;35.62;28.83;100711.81;146610;589;46017;-81
2022/08/04 11:18:59;;;;;;;;;6.00;6.00;;;;;36.53;27.66;100846.34;146609;706;46020;-81
2022/08/04 11:22:37;;;;;;;;;4.00;4.00;;;;;36.56;27.48;100847.13;146608;653;46013;-81
2022/08/04 11:26:15;;;;;;;;;4.75;4.50;;;;;35.75;27.46;100715.59;146608;563;46020;-81
2022/08/04 11:29:53;;;;;;;;;5.25;5.25;;;;;35.75;29.29;100707.50;146608;604;46014;-79
2022/08/04 11:33:27;;;;;;;;;4.00;4.00;;;;;36.62;25.65;100842.25;146607;590;46020;-79
2022/08/04 11:36:52;;;;;;;;;6.25;5.25;;;;;36.68;27.98;100838.34;146605;689;47013;-79
2022/08/04 11:40:14;;;;;;;;;4.00;3.00;;;;;36.78;27.64;100841.41;146609;572;46020;-80
2022/08/04 11:43:17;;;;;;;;;5.25;5.00;;;;;36.90;24.49;100833.47;146606;566;46920;-76
2022/08/04 11:46:25;;;;;;;;;4.25;3.75;;;;;37.03;26.83;100836.38;146610;569;46021;-74
2022/08/04 11:49:35;;;;;;;;;5.25;5.25;;;;;37.13;25.99;100839.41;146610;719;46012;-82
2022/08/04 11:52:41;;;;;;;;;5.25;5.25;;;;;37.14;25.83;100843.87;146610;575;45021;-80
2022/08/04 11:55:43;;;;;;;;;4.75;4.75;;;;;37.14;26.57;100833.06;146608;688;46016;-79
2022/08/04 11:58:47;;;;;;;;;2.50;2.25;;;;;37.17;25.36;100827.47;146610;569;46010;-78
2022/08/04 12:02:22;;;;;;;;;4.75;4.75;;;;;36.70;25.71;100747.25;146608;631;46014;-82
2022/08/04 12:05:23;;;;;;;;;5.50;5.50;;;;;37.20;24.54;100819.19;146609;566;46021;-85
2022/08/04 12:08:55;;;;;;;;;3.50;3.50;;;;;37.27;24.95;100827.81;146606;582;46012;-85
2022/08/04 12:12:30;;;;;;;;;4.50;4.50;;;;;36.89;28.77;100749.78;146610;574;46020;-91
2022/08/04 12:15:41;;;;;;;;;5.25;5.25;;;;;37.31;24.01;100813.13;146607;707;46016;-89
2022/08/04 12:18:59;;;;;;;;;;;;;;;;;;;;;
2022/08/04 12:22:00;;;;;;;;;5.00;5.00;;;;;37.22;25.08;100801.00;146608;596;46016;-89
2022/08/04 12:25:22;;;;;;;;;5.00;5.00;;;;;37.21;25.35;100799.28;146610;685;46020;-84
2022/08/04 12:28:43;;;;;;;;;4.75;4.00;;;;;36.25;25.00;100649.00;146608;659;46017;-87
2022/08/04 12:31:58;;;;;;;;;4.50;4.50;;;;;37.09;23.56;100790.06;146609;715;46020;-86
2022/08/04 12:35:33;;;;;;;;;6.25;5.75;;;;;36.27;25.52;100633.59;146607;577;46015;-85
2022/08/04 12:38:34;;;;;;;;;5.75;5.75;;;;;37.11;25.24;100779.16;146609;625;46020;-83
2022/08/04 12:41:39;;;;;;;;;5.00;3.75;;;;;37.00;25.87;100790.59;146608;563;46016;-87
2022/08/04 12:44:42;;;;;;;;;5.00;4.25;;;;;36.90;27.05;100781.25;146609;584;46020;-83
2022/08/04 12:47:34;;;;;;;;;4.00;4.00;;;;;36.56;22.16;100785.00;146608;571;46016;-84
2022/08/04 12:50:36;;;;;;;;;5.25;5.25;;;;;36.19;24.16;100790.59;146609;605;46010;-88
2022/08/04 12:53:44;;;;;;;;;7.00;6.25;;;;;35.71;25.74;100796.78;146606;640;46919;-87
2022/08/04 12:56:42;;;;;;;;;3.00;3.00;;;;;35.20;23.02;100785.84;146606;571;46012;-90
2022/08/04 12:59:42;;;;;;;;;4.75;4.75;;;;;35.08;25.26;100784.66;146608;709;46014;-85
2022/08/04 13:03:03;;;;;;;;;6.50;6.50;;;;;34.91;24.63;100777.34;146609;643;46010;-88
2022/08/04 13:06:01;;;;;;;;;6.25;6.25;;;;;34.71;25.62;100782.87;146608;617;46016;-76
2022/08/04 13:09:14;;;;;;;;;6.25;6.00;;;;;34.68;24.95;100772.25;146611;681;46010;-75
2022/08/04 13:12:19;;;;;;;;;7.00;7.00;;;;;34.55;26.76;100776.44;146608;582;46013;-76
2022/08/04 13:15:20;;;;;;;;;4.25;4.25;;;;;34.41;27.14;100769.00;146608;665;47012;-77
2022/08/04 13:18:25;;;;;;;;;4.50;4.50;;;;;34.40;24.64;100773.53;146601;674;46016;-75
2022/08/04 13:21:56;;;;;;;;;4.00;4.00;;;;;33.44;24.33;100609.34;146609;645;46021;-74
2022/08/04 13:25:08;;;;;;;;;4.00;4.00;;;;;34.14;24.32;100761.25;146621;682;46016;-73
2022/08/04 13:28:27;;;;;;;;;6.00;5.25;;;;;34.02;23.86;100756.47;146620;584;46010;-74
2022/08/04 13:31:30;;;;;;;;;5.75;4.00;;;;;33.89;24.06;100761.47;146620;682;46016;-78
2022/08/04 13:34:45;;;;;;;;;;;;;;;;;;;;;
2022/08/04 13:37:51;;;;;;;;;5.00;5.00;;;;;34.03;24.84;100753.69;146617;708;46016;-76
2022/08/04 13:40:57;;;;;;;;;5.00;3.33;;;;;34.11;23.87;100755.16;146625;567;45020;-77
2022/08/04 13:44:08;;;;;;;;;5.00;5.00;;;;;33.00;27.38;100608.66;146621;699;45034;-75
2022/08/04 13:47:28;;;;;;;;;4.75;4.75;;;;;32.78;27.01;100616.72;146623;662;45020;-73
2022/08/04 13:50:41;;;;;;;;;5.00;5.00;;;;;33.53;28.81;100755.94;146622;625;45017;-76
2022/08/04 13:53:54;;;;;;;;;6.50;6.50;;;;;33.57;30.41;100755.72;146626;570;45020;-79
2022/08/04 13:56:54;;;;;;;;;5.50;5.50;;;;;33.71;28.98;100760.50;146619;660;46012;-77
2022/08/04 13:59:58;;;;;;;;;6.25;6.25;;;;;33.83;29.42;100771.66;146620;622;46047;-76
2022/08/04 14:02:57;;;;;;;;;6.00;6.00;;;;;33.84;29.52;100757.28;146619;600;45918;-77
2022/08/04 14:06:39;;;;;;;;;6.50;5.25;;;;;33.80;30.04;100762.78;146623;563;46012;-76
2022/08/04 14:09:37;;;;;;;;;4.75;4.50;;;;;33.80;29.56;100757.41;146621;673;45016;-78
2022/08/04 14:12:35;;;;;;;;;5.00;4.75;;;;;33.83;29.60;100761.75;146622;684;46021;-75
2022/08/04 14:16:03;;;;;;;;;5.25;5.25;;;;;33.83;28.64;100744.75;146619;572;47012;-75
2022/08/04 14:19:09;;;;;;;;;1.75;1.75;;;;;33.86;28.83;100748.16;146623;573;46010;-74
2022/08/04 14:22:03;;;;;;;;;4.25;4.25;;;;;33.87;26.46;100752.63;146619;717;46016;-76
2022/08/04 14:25:24;;;;;;;;;5.25;5.25;;;;;32.96;27.47;100594.44;146609;614;46020;-73
2022/08/04 14:28:41;;;;;;;;;5.00;5.00;;;;;33.01;28.92;100603.19;146606;604;46016;-74
2022/08/04 14:31:36;;;;;;;;;6.50;5.50;;;;;33.88;29.16;100762.44;146609;658;46012;-72
2022/08/04 14:34:35;;;;;;;;;6.75;6.00;;;;;33.81;28.26;100755.59;146607;596;46016;-73
2022/08/04 14:37:31;;;;;;;;;7.50;6.50;;;;;33.79;28.14;100760.16;146610;600;46010;-78
2022/08/04 14:40:44;;;;;;;;;3.25;3.25;;;;;33.76;29.08;100754.91;146607;577;46016;-76
2022/08/04 14:43:59;;;;;;;;;4.00;4.00;;;;;33.74;29.06;100764.84;146610;624;46032;-72
2022/08/04 14:46:58;;;;;;;;;6.00;5.25;;;;;33.70;29.18;100755.19;146606;580;46016;-73
2022/08/04 14:50:08;;;;;;;;;5.25;5.25;;;;;33.67;29.18;100758.87;146610;707;45021;-71
2022/08/04 14:53:13;;;;;;;;;6.50;6.50;;;;;33.64;30.30;100766.22;146606;662;46016;-76
2022/08/04 14:56:18;;;;;;;;;6.00;5.00;;;;;33.55;30.17;100760.31;146607;699;46020;-74
2022/08/04 14:59:17;;;;;;;;;7.00;6.00;;;;;33.50;30.68;100756.94;146607;606;46921;-74
2022/08/04 15:02:23;;;;;;;;;6.75;6.50;;;;;33.48;30.66;100761.47;146609;569;47010;-75
2022/08/04 15:05:32;;;;;;;;;5.00;5.00;;;;;33.43;31.07;100760.81;146607;599;46012;-73
2022/08/04 15:08:37;;;;;;;;;6.25;5.75;;;;;33.35;32.36;100747.69;146611;731;45020;-76
2022/08/04 15:11:33;;;;;;;;;6.50;5.50;;;;;33.26;32.06;100755.28;146605;689;46017;-76
2022/08/04 15:14:40;;;;;;;;;6.00;6.00;;;;;33.18;32.48;100754.72;146608;636;46020;-74
2022/08/04 15:17:36;;;;;;;;;6.25;6.00;;;;;33.11;32.23;100763.03;146608;570;46013;-74
2022/08/04 15:20:41;;;;;;;;;7.50;6.75;;;;;33.03;33.66;100756.25;146604;577;46021;-72
2022/08/04 15:23:46;;;;;;;;;4.50;4.50;;;;;32.95;32.86;100755.66;146608;648;45016;-78
2022/08/04 15:27:06;;;;;;;;;5.50;5.50;;;;;32.86;32.23;100757.78;146607;609;46011;-72
2022/08/04 15:30:10;;;;;;;;;6.50;6.00;;;;;32.80;32.60;100760.69;146607;658;45016;-72
2022/08/04 15:33:24;;;;;;;;;4.50;4.50;;;;;32.75;33.15;100756.47;146609;608;46011;-77
2022/08/04 15:36:34;;;;;;;;;7.00;6.25;;;;;32.70;33.83;100761.16;146609;683;45921;-73